Aérodrome :
LOGIN :

S'inscrire | Disclaimer

   EN    FR    IT 

 










Légende :    VFR   VFR Marginal   IFR   IFR Intensif   IFR Très Intensif
Visi : 
Plafond : 
>= 8 km
>= 3000ft
5 à 8 km
1000 à 3000 ft
1500m à 5 km
500 à 1000 ft
800 à 1500m
200 à 500 ft
< 800m
< 200 ft
Symboles :   Orages  Brouillard  Fortes neiges  Fortes précipitations  Vent > 20 kt
SIGMETs :   Divers  Orages  Givrage  Turbulence  Onde Orograph.  Cendres Volcan.







- Altitude de l'aérodrome : 26 ft
- Code IATA : BIA
- Voir les cartes d'approche


LFKB - Bastia

DERNIER METAR :
  • 221500Z AUTO 29010KT 9999 FEW050 OVC160 11/01 Q1004 BECMG 02005KT

METARs EXPIRÉS :
  • 221430Z AUTO 29012KT 9999 FEW043 SCT078 BKN160 11/01 Q1004 BECMG 02005KT
  • 221400Z AUTO 34005KT 310V020 9999 SCT041 BKN068 BKN092 11/04 Q1004 TEMPO RA
  • 221330Z AUTO 04003KT 360V090 9999 FEW044 BKN060 BKN076 11/05 Q1004 TEMPO RA
  • 221300Z AUTO 36004KT 9999 FEW022 SCT047 BKN056 09/04 Q1005 TEMPO RA
  • 221230Z AUTO 36007KT 330V030 9999 FEW024 BKN035 BKN058 08/04 Q1005 TEMPO RA

TAF TAF LFKB
Valide du 22 à 15h jusqu'au 23 à 15h UTC


221400Z 2215/2315 02005KT 9999 SCT030 BKN070 TX12/2215Z TN02/2304Z
BECMG 2218/2221 24004KT
TEMPO 2222/2315 SHRA BKN020
ATIS : +33 4 95 59 19 40
Pas de NOTAMs connus pour ce terrain.



MET'MAP, la Météo Aéronautique d'un coup d'oeil ! - Copyright ORBIFLY Décembre 2007 - Disclaimer

ORBIFLY MET'MAP TEAM :

Programmation & Développement : Alexandra Zaïnal
Conception & Développement : Baudouin d'Aumeries
Co-Programmation & Développement : Marc-Olivier Méhu
Soutien technique & logistique : Manuel Goepfert

Contact : metmap@orbifly.com




SOURCES & CREDITS :

   NOAA